• Join FlightAware (Why Join?)
  • Login
  • US Flag 
06:56AM EDT


 

Airport Tracker/Info


-or-


 

Live Flight TrackerFlight Track Log ✈ UPS1122 ✈ 25-Jun-2013 ✈ KPHL - KBDL

Flight Track Log - Related Links

Times and Time Zones

All times are in EDT time to prevent confusion due to time zone crossing. See the UPS1122 flight status page for this flight to view local times or setup timezone preferences in your user account.

Time Position Orientation Groundspeed Altitude Reporting Facility
EDT Latitude Longitude Course Direction KTS MPH feet Rate Location/Type
03:48AM 39.8623 -75.2673 255° West 151 174 900  Level FlightAware ADS-B
03:48AM 39.8612 -75.2715 251° West 142 163 1,300 4,140 Climbing FlightAware ADS-B
03:48AM 39.8593 -75.2773 247° West 138 159 1,800 3,000 Climbing FlightAware ADS-B
03:48AM 39.8581 -75.2806 245° Southwest 142 163 1,900 1,080 Climbing FlightAware ADS-B
03:48AM 39.8543 -75.2898 242° Southwest 164 189 2,100 660 Climbing FlightAware ADS-B
03:48AM 39.8516 -75.2958 240° Southwest 181 208 2,100  Level FlightAware ADS-B
03:48AM 39.8496 -75.2997 236° Southwest 190 219 2,100 720 Level FlightAware ADS-B
03:49AM 39.8477 -75.3028 231° Southwest 198 228 2,200 1,500 Climbing FlightAware ADS-B
03:49AM 39.8452 -75.3061 225° Southwest 202 232 2,300 1,680 Climbing FlightAware ADS-B
03:49AM 39.8426 -75.3090 221° Southwest 205 236 2,400 2,220 Climbing FlightAware ADS-B
03:49AM 39.8388 -75.3121 212° Southwest 210 242 2,600 3,000 Climbing FlightAware ADS-B
03:49AM 39.8357 -75.3139 204° Southwest 213 245 2,800 2,520 Climbing FlightAware ADS-B
03:49AM 39.8325 -75.3151 196° South 216 249 2,900 2,520 Climbing FlightAware ADS-B
03:49AM 39.8295 -75.3158 190° South 218 251 3,100 3,000 Climbing FlightAware ADS-B
03:49AM 39.8262 -75.3159 181° South 220 253 3,200 2,520 Climbing FlightAware ADS-B
03:49AM 39.8220 -75.3154 175° South 222 255 3,400 2,520 Climbing FlightAware ADS-B
03:49AM 39.8189 -75.3145 167° South 224 258 3,500 3,000 Climbing FlightAware ADS-B
03:49AM 39.8153 -75.3128 160° South 225 259 3,700 2,520 Climbing FlightAware ADS-B
03:49AM 39.8119 -75.3106 154° Southeast 230 265 3,800 1,680 Climbing FlightAware ADS-B
03:49AM 39.8089 -75.3082 148° Southeast 235 270 3,900 1,680 Climbing FlightAware ADS-B
03:49AM 39.8059 -75.3051 142° Southeast 241 277 4,000 1,680 Climbing FlightAware ADS-B
03:49AM 39.8030 -75.3013 135° Southeast 247 284 4,100 1,680 Climbing FlightAware ADS-B
03:49AM 39.7998 -75.2963 130° Southeast 254 292 4,200 1,500 Climbing FlightAware ADS-B
03:49AM 39.7975 -75.2916 122° Southeast 261 300 4,300 1,500 Climbing FlightAware ADS-B
03:50AM 39.7954 -75.2860 116° Southeast 266 306 4,400 1,680 Climbing FlightAware ADS-B
03:50AM 39.7941 -75.2811 109° East 269 310 4,500 1,980 Climbing FlightAware ADS-B
03:50AM 39.7925 -75.2721 103° East 274 315 4,700 2,460 Climbing FlightAware ADS-B
03:50AM 39.7914 -75.2610 97° East 278 320 5,000 2,700 Climbing FlightAware ADS-B
03:50AM 39.7909 -75.2537 95° East 281 323 5,200 3,000 Climbing FlightAware ADS-B
03:50AM 39.7901 -75.2299 92° East 286 329 5,900 3,000 Climbing FlightAware ADS-B
03:50AM 39.7900 -75.2080 90° East 289 333 6,500 3,000 Climbing FlightAware ADS-B
03:51AM 39.7898 -75.1811 91° East 295 339 7,300 2,880 Climbing FlightAware ADS-B
03:51AM 39.7899 -75.1535 90° East 298 343 8,000 2,880 Climbing FlightAware ADS-B
03:51AM 39.7902 -75.1255 89° East 302 348 8,800 3,000 Climbing FlightAware ADS-B
03:51AM 39.7904 -75.0976 89° East 305 351 9,500 2,400 Climbing FlightAware ADS-B
03:52AM 39.7909 -75.0380 89° East 324 373 10,700 1,800 Climbing FlightAware ADS-B
03:52AM 39.7914 -74.9759 89° East 356 410 11,400 1,200 Climbing FlightAware ADS-B
03:53AM 39.7919 -74.9078 89° East 375 432 11,900 720 Climbing FlightAware ADS-B
03:53AM 39.7924 -74.8460 89° East 378 435 12,100 1,020 Climbing FlightAware ADS-B
03:54AM 39.7932 -74.7753 89° East 394 453 12,900 1,500 Climbing FlightAware ADS-B
03:54AM 39.7950 -74.7547 84° East 400 460 13,100 1,500 Climbing FlightAware ADS-B
03:54AM 39.7965 -74.7462 77° East 402 463 13,200 1,380 Climbing FlightAware ADS-B
03:54AM 39.8028 -74.7241 70° East 407 468 13,400 1,380 Climbing FlightAware ADS-B
03:54AM 39.8056 -74.7172 62° Northeast 407 468 13,500 1,800 Climbing FlightAware ADS-B
03:54AM 39.8127 -74.7031 57° Northeast 409 471 13,700 1,800 Climbing FlightAware ADS-B
03:54AM 39.8165 -74.6970 51° Northeast 409 471 13,800 1,620 Climbing FlightAware ADS-B
03:55AM 39.8270 -74.6833 45° Northeast 410 472 14,000 2,040 Climbing FlightAware ADS-B
03:55AM 39.8726 -74.6369 38° Northeast 416 479 15,100 1,980 Climbing FlightAware ADS-B
03:56AM 39.9218 -74.5894 37° Northeast 423 487 16,100 1,800 Climbing FlightAware ADS-B
03:56AM 39.9752 -74.5371 37° Northeast 432 497 17,100 1,740 Climbing FlightAware ADS-B
03:57AM 40.0238 -74.4891 37° Northeast 439 505 18,000 1,680 Climbing FlightAware ADS-B
03:57AM 40.0729 -74.4404 37° Northeast 436 502 18,800 1,080 Climbing FlightAware ADS-B
03:58AM 40.1196 -74.3937 37° Northeast 416 479 19,100 180 Climbing FlightAware ADS-B
03:58AM 40.1691 -74.3444 37° Northeast 440 506 19,000 -120 Descending FlightAware ADS-B
03:59AM 40.2184 -74.2951 37° Northeast 445 512 19,000  Level FlightAware ADS-B
03:59AM 40.2674 -74.2458 38° Northeast 443 510 19,000  Level FlightAware ADS-B
04:00AM 40.3165 -74.1962 38° Northeast 442 509 19,000  Level FlightAware ADS-B
04:00AM 40.3658 -74.1465 38° Northeast 442 509 19,000  Level FlightAware ADS-B
04:01AM 40.4027 -74.1087 38° Northeast 438 504 19,000  Level FlightAware ADS-B
04:01AM 40.4193 -74.0889 42° Northeast 440 506 19,000  Level FlightAware ADS-B
04:01AM 40.4410 -74.0582 47° Northeast 442 509 19,000  Level FlightAware ADS-B
04:01AM 40.4499 -74.0434 52° Northeast 444 511 19,000  Level FlightAware ADS-B
04:01AM 40.4633 -74.0180 55° Northeast 446 513 19,000  Level FlightAware ADS-B
04:02AM 40.4964 -73.9476 58° Northeast 445 512 19,000  Level FlightAware ADS-B
04:02AM 40.5287 -73.8775 59° Northeast 445 512 19,000  Level FlightAware ADS-B
04:03AM 40.5598 -73.8098 59° Northeast 442 509 19,000  Level FlightAware ADS-B
04:03AM 40.5756 -73.7803 55° Northeast 441 507 19,000  Level FlightAware ADS-B
04:03AM 40.5881 -73.7618 48° Northeast 438 504 19,000  Level FlightAware ADS-B
04:03AM 40.6123 -73.7336 41° Northeast 435 501 19,000  Level FlightAware ADS-B
04:04AM 40.6395 -73.7110 32° Northeast 434 499 19,000  Level FlightAware ADS-B
04:04AM 40.6932 -73.6728 28° Northeast 431 496 19,000  Level FlightAware ADS-B
04:05AM 40.7902 -73.6043 28° Northeast 428 493 19,000  Level FlightAware ADS-B
04:06AM 40.8446 -73.5656 28° Northeast 431 496 19,000  Level FlightAware ADS-B
04:06AM 40.8975 -73.5279 28° Northeast 432 497 19,000  Level FlightAware ADS-B
04:07AM 40.9508 -73.4897 28° Northeast 434 499 19,000 -780 Level FlightAware ADS-B
04:07AM 41.0071 -73.4491 29° Northeast 428 493 18,200 -2,160 Descending FlightAware ADS-B
04:08AM 41.0668 -73.4060 29° Northeast 421 484 16,600 -3,060 Descending FlightAware ADS-B
04:08AM 41.1177 -73.3694 28° Northeast 410 472 14,900 -3,240 Descending FlightAware ADS-B
04:09AM 41.2231 -73.2926 29° Northeast 398 458 11,500 -2,160 Descending FlightAware ADS-B
04:10AM 41.2710 -73.2570 29° Northeast 397 457 11,300 -180 Descending FlightAware
04:11AM 41.3200 -73.2210 29° Northeast 397 457 11,300  Level FlightAware
04:11AM 41.3840 -73.1740 29° Northeast 397 457 11,300 -180 Level FlightAware
04:12AM 41.4269 -73.1433 29° Northeast 307 353 11,100 -780 Descending Boston Center
04:13AM 41.5336 -73.0697 29° Northeast 295 339 9,900 -1,620 Descending Boston Center
04:14AM 41.5066 -73.0380 31° Northeast  Level FlightAware Approximate
04:15AM 41.6467 -72.9844 29° Northeast 285 328 6,300  Level Boston Center
04:16AM 41.7158 -72.9350 28° Northeast 276 318 3,900 -1,620 Descending Boston Center
04:17AM 41.7764 -72.8883 30° Northeast 265 305 3,100 -480 Descending Boston Center
04:18AM 41.8286 -72.8386 35° Northeast 217 250 3,000 -600 Descending Boston Center
04:19AM 41.8683 -72.7831 46° Northeast 201 231 2,000 -960 Descending Boston Center
04:20AM 41.8997 -72.7414 45° Northeast 167 192 1,100 -780 Descending Boston Center
04:21AM 41.9333 -72.6833 29° Northeast  Level FlightAware Approximate
04:21AM 41.9250 -72.7081 44° Northeast 135 155 500  Level Boston Center
04:22AM 41.9392 -72.6834 29° Northeast  Level Estimated
04:23AM 41.9333 -72.6833 29° Northeast  Level FlightAware Approximate
04:25AM 41.9333 -72.6833 29° Northeast  Level FlightAware Approximate
04:32AM 41.9392 -72.6834 29° Northeast  Level Estimated
04:33AM 41.9333 -72.6833 29° Northeast  Level FlightAware Approximate
04:34AM 41.9392 -72.6834 29° Northeast  Level Estimated
04:35AM 41.9333 -72.6833 29° Northeast  Level FlightAware Approximate
04:36AM 41.9392 -72.6834 29° Northeast  Level Estimated